createdAt,value
2022-10-06T00:04:43.655Z,4.40
2022-10-06T00:10:45.520Z,3.60
2022-10-06T00:16:47.242Z,4.57
2022-10-06T00:22:52.769Z,4.60
2022-10-06T00:28:54.551Z,4.00
2022-10-06T00:34:58.790Z,4.77
2022-10-06T00:41:00.706Z,4.43
2022-10-06T00:47:03.255Z,4.60
2022-10-06T00:53:06.274Z,3.60
2022-10-06T00:59:17.535Z,3.87
2022-10-06T01:05:32.191Z,4.13
2022-10-06T01:11:37.866Z,3.50
2022-10-06T01:17:50.917Z,4.43
2022-10-06T01:23:53.181Z,4.00
2022-10-06T01:29:56.563Z,2.97
2022-10-06T01:35:58.367Z,2.87
2022-10-06T01:42:00.071Z,4.20
2022-10-06T01:48:01.963Z,3.87
2022-10-06T01:54:03.878Z,3.90
2022-10-06T02:00:07.058Z,4.83
2022-10-06T02:06:09.717Z,3.77
2022-10-06T02:12:11.435Z,3.67
2022-10-06T02:18:13.143Z,3.90
2022-10-06T02:24:14.881Z,3.70
2022-10-06T02:30:16.971Z,4.20
2022-10-06T02:36:19.050Z,3.20
2022-10-06T02:42:20.785Z,3.57
2022-10-06T02:48:24.580Z,4.40
2022-10-06T02:54:26.305Z,3.80
2022-10-06T03:00:28.145Z,4.80
2022-10-06T03:06:31.280Z,4.40
2022-10-06T03:12:33.009Z,3.37
2022-10-06T03:18:36.224Z,4.10
2022-10-06T03:24:38.010Z,3.93
2022-10-06T03:30:39.747Z,4.03
2022-10-06T03:36:41.783Z,3.90
2022-10-06T03:42:43.500Z,3.97
2022-10-06T03:48:46.104Z,3.57
2022-10-06T03:54:47.868Z,4.33
2022-10-06T04:00:49.689Z,3.23
2022-10-06T04:06:51.593Z,3.53
2022-10-06T04:12:53.369Z,4.47
2022-10-06T04:18:58.063Z,4.83
2022-10-06T04:24:59.770Z,4.70
2022-10-06T04:31:01.988Z,3.83
2022-10-06T04:37:04.211Z,3.80
2022-10-06T04:43:06.014Z,4.23
2022-10-06T04:49:07.796Z,3.30
2022-10-06T04:55:11.207Z,3.30
2022-10-06T05:01:18.582Z,3.63
2022-10-06T05:07:20.402Z,4.33
2022-10-06T05:13:22.165Z,7.03
2022-10-06T05:19:23.900Z,9.33
2022-10-06T05:25:25.684Z,6.87
2022-10-06T05:31:33.093Z,6.00
2022-10-06T05:37:34.929Z,7.30
2022-10-06T05:43:37.691Z,5.77
2022-10-06T05:49:39.530Z,9.30
2022-10-06T05:55:43.828Z,13.57
2022-10-06T06:01:45.813Z,10.53
2022-10-06T06:07:47.753Z,8.03
2022-10-06T06:13:59.237Z,7.33
2022-10-06T06:20:01.188Z,12.27
2022-10-06T06:26:09.295Z,64.00
2022-10-06T06:32:11.405Z,48.70
2022-10-06T06:51:15.754Z,12.37
2022-10-06T06:57:19.688Z,12.90
2022-10-06T07:03:56.225Z,9.97
2022-10-06T07:22:48.462Z,4.20
2022-10-06T07:54:53.879Z,6.43
2022-10-06T11:54:45.515Z,1.50
2022-10-06T13:00:43.411Z,2.47
2022-10-06T16:11:15.365Z,9.10
2022-10-06T16:23:35.103Z,28.88
2022-10-06T16:29:36.967Z,25.40
2022-10-06T16:35:38.968Z,21.70
2022-10-06T16:41:41.084Z,17.97
2022-10-06T16:47:43.407Z,17.37
2022-10-06T16:53:51.005Z,15.00
2022-10-06T16:59:52.876Z,13.03
2022-10-06T17:05:54.737Z,12.73
2022-10-06T17:12:01.955Z,10.90
2022-10-06T17:18:03.834Z,10.73
2022-10-06T17:24:06.304Z,8.43
2022-10-06T17:30:08.842Z,7.40
2022-10-06T17:36:16.751Z,7.27
2022-10-06T17:42:18.507Z,9.43
2022-10-06T17:48:20.295Z,7.23
2022-10-06T17:54:24.454Z,5.57
2022-10-06T18:00:26.203Z,9.77
2022-10-06T18:06:29.839Z,18.83
2022-10-06T18:12:36.297Z,14.03
2022-10-06T18:18:43.932Z,7.50
2022-10-06T18:24:45.729Z,8.73
2022-10-06T18:30:51.471Z,9.07
2022-10-06T18:36:53.312Z,11.57
2022-10-06T18:42:55.113Z,8.47
2022-10-06T18:48:59.511Z,8.60
2022-10-06T18:55:01.357Z,8.10
2022-10-06T19:01:07.206Z,8.23
2022-10-06T19:07:09.398Z,5.13
2022-10-06T19:13:11.537Z,5.70
2022-10-06T19:19:19.410Z,5.80
2022-10-06T19:25:21.968Z,9.37
2022-10-06T19:31:23.813Z,9.00
2022-10-06T19:37:30.311Z,10.20
2022-10-06T19:43:32.143Z,10.63
2022-10-06T19:49:35.318Z,9.20
2022-10-06T19:55:37.114Z,6.87
2022-10-06T20:01:39.191Z,5.60
2022-10-06T20:07:43.979Z,5.43
2022-10-06T20:13:46.635Z,3.87
2022-10-06T20:19:48.503Z,4.43
2022-10-06T20:25:50.260Z,6.23
2022-10-06T20:31:54.008Z,5.50
2022-10-06T20:37:55.742Z,5.87
2022-10-06T20:43:58.649Z,5.90
2022-10-06T20:50:00.426Z,6.90
2022-10-06T20:56:02.318Z,8.07
2022-10-06T21:02:05.384Z,8.10
2022-10-06T21:08:07.094Z,6.00
2022-10-06T21:14:11.535Z,6.97
2022-10-06T21:20:13.319Z,6.37
2022-10-06T21:26:18.601Z,4.93
2022-10-06T21:32:20.284Z,4.53
2022-10-06T21:38:22.021Z,5.73
2022-10-06T21:44:23.728Z,5.67
2022-10-06T21:50:25.553Z,5.93
2022-10-06T21:56:30.235Z,6.47
2022-10-06T22:02:32.009Z,6.17
2022-10-06T22:08:35.454Z,6.10
2022-10-06T22:14:37.622Z,6.13
2022-10-06T22:20:39.455Z,6.33
2022-10-06T22:26:42.817Z,6.63
2022-10-06T22:32:44.584Z,6.13
2022-10-06T22:38:46.386Z,5.37
2022-10-06T22:44:48.267Z,5.50
2022-10-06T22:50:50.661Z,4.93
2022-10-06T22:56:52.426Z,4.73
2022-10-06T23:02:55.105Z,5.00
2022-10-06T23:08:57.390Z,5.77
2022-10-06T23:14:59.159Z,5.37
2022-10-06T23:21:05.632Z,5.37
2022-10-06T23:27:07.433Z,4.90
2022-10-06T23:33:09.246Z,4.87
2022-10-06T23:39:11.135Z,4.57
2022-10-06T23:45:13.045Z,4.80
2022-10-06T23:57:31.721Z,4.70
